sensor_id;sensor_type;location;lat;lon;timestamp;temperature;humidity
22984;DHT22;11658;48.908;9.140;2024-03-06T05:01:25;5.90;99.90
22984;DHT22;11658;48.908;9.140;2024-03-06T05:03:50;6.00;99.90
22984;DHT22;11658;48.908;9.140;2024-03-06T05:06:16;6.00;99.90
22984;DHT22;11658;48.908;9.140;2024-03-06T05:08:42;6.00;99.90
22984;DHT22;11658;48.908;9.140;2024-03-06T05:11:07;6.00;99.90
22984;DHT22;11658;48.908;9.140;2024-03-06T05:13:33;6.00;99.90
22984;DHT22;11658;48.908;9.140;2024-03-06T05:15:58;6.00;99.90
22984;DHT22;11658;48.908;9.140;2024-03-06T05:18:24;5.90;99.90
22984;DHT22;11658;48.908;9.140;2024-03-06T05:20:49;5.80;99.90
22984;DHT22;11658;48.908;9.140;2024-03-06T05:23:15;5.80;99.90
22984;DHT22;11658;48.908;9.140;2024-03-06T05:25:43;5.80;99.90
22984;DHT22;11658;48.908;9.140;2024-03-06T05:28:08;5.90;99.90
22984;DHT22;11658;48.908;9.140;2024-03-06T05:30:34;5.90;99.90
22984;DHT22;11658;48.908;9.140;2024-03-06T05:32:59;5.90;99.90
22984;DHT22;11658;48.908;9.140;2024-03-06T05:35:25;5.90;99.90
22984;DHT22;11658;48.908;9.140;2024-03-06T05:37:50;5.80;99.90
22984;DHT22;11658;48.908;9.140;2024-03-06T05:40:16;5.70;99.90
22984;DHT22;11658;48.908;9.140;2024-03-06T05:42:41;5.50;99.90
22984;DHT22;11658;48.908;9.140;2024-03-06T05:45:07;5.60;99.90
22984;DHT22;11658;48.908;9.140;2024-03-06T05:47:36;5.60;99.90
22984;DHT22;11658;48.908;9.140;2024-03-06T05:50:02;5.50;99.90
22984;DHT22;11658;48.908;9.140;2024-03-06T05:52:30;5.50;99.90
22984;DHT22;11658;48.908;9.140;2024-03-06T05:54:58;5.50;99.90
22984;DHT22;11658;48.908;9.140;2024-03-06T05:57:23;5.50;99.90
22984;DHT22;11658;48.908;9.140;2024-03-06T05:59:49;5.50;99.90
22984;DHT22;11658;48.908;9.140;2024-03-06T06:02:15;5.70;99.90
22984;DHT22;11658;48.908;9.140;2024-03-06T06:04:42;5.50;99.90
22984;DHT22;11658;48.908;9.140;2024-03-06T06:07:07;5.60;99.90
22984;DHT22;11658;48.908;9.140;2024-03-06T06:09:33;5.60;99.90
22984;DHT22;11658;48.908;9.140;2024-03-06T06:11:58;5.60;99.90
22984;DHT22;11658;48.908;9.140;2024-03-06T06:14:24;5.50;99.90
22984;DHT22;11658;48.908;9.140;2024-03-06T06:16:52;5.50;99.90
22984;DHT22;11658;48.908;9.140;2024-03-06T06:19:18;5.60;99.90
22984;DHT22;11658;48.908;9.140;2024-03-06T06:21:43;5.60;99.90
22984;DHT22;11658;48.908;9.140;2024-03-06T06:24:09;5.60;99.90
22984;DHT22;11658;48.908;9.140;2024-03-06T06:26:34;5.70;99.90
22984;DHT22;11658;48.908;9.140;2024-03-06T06:29:00;5.70;99.90
22984;DHT22;11658;48.908;9.140;2024-03-06T06:31:25;5.80;99.90
22984;DHT22;11658;48.908;9.140;2024-03-06T06:33:52;5.80;99.90
22984;DHT22;11658;48.908;9.140;2024-03-06T06:36:18;5.90;99.90
22984;DHT22;11658;48.908;9.140;2024-03-06T06:38:43;5.70;99.90
22984;DHT22;11658;48.908;9.140;2024-03-06T06:41:09;5.70;99.90
22984;DHT22;11658;48.908;9.140;2024-03-06T06:43:35;5.80;99.90
22984;DHT22;11658;48.908;9.140;2024-03-06T06:46:01;5.80;99.90
22984;DHT22;11658;48.908;9.140;2024-03-06T06:48:26;5.80;99.90
22984;DHT22;11658;48.908;9.140;2024-03-06T06:50:52;5.90;99.90
22984;DHT22;11658;48.908;9.140;2024-03-06T06:53:17;5.90;99.90
22984;DHT22;11658;48.908;9.140;2024-03-06T06:55:43;5.90;99.90
22984;DHT22;11658;48.908;9.140;2024-03-06T06:58:09;5.80;99.90
22984;DHT22;11658;48.908;9.140;2024-03-06T07:00:35;5.90;99.90
22984;DHT22;11658;48.908;9.140;2024-03-06T07:03:03;5.80;99.90
22984;DHT22;11658;48.908;9.140;2024-03-06T07:05:28;5.80;99.90
22984;DHT22;11658;48.908;9.140;2024-03-06T07:07:54;5.70;99.90
22984;DHT22;11658;48.908;9.140;2024-03-06T07:10:19;5.70;99.90
22984;DHT22;11658;48.908;9.140;2024-03-06T07:12:45;5.60;99.90
22984;DHT22;11658;48.908;9.140;2024-03-06T07:15:10;5.60;99.90
22984;DHT22;11658;48.908;9.140;2024-03-06T07:17:36;5.60;99.90
22984;DHT22;11658;48.908;9.140;2024-03-06T07:20:01;5.60;99.90
22984;DHT22;11658;48.908;9.140;2024-03-06T07:22:27;5.60;99.90
22984;DHT22;11658;48.908;9.140;2024-03-06T07:24:52;5.60;99.90
22984;DHT22;11658;48.908;9.140;2024-03-06T07:27:18;5.60;99.90
22984;DHT22;11658;48.908;9.140;2024-03-06T07:29:44;5.60;99.90
22984;DHT22;11658;48.908;9.140;2024-03-06T07:32:09;5.60;99.90
22984;DHT22;11658;48.908;9.140;2024-03-06T07:34:36;5.60;99.90
22984;DHT22;11658;48.908;9.140;2024-03-06T07:37:01;5.70;99.90
22984;DHT22;11658;48.908;9.140;2024-03-06T07:39:27;5.70;99.90
22984;DHT22;11658;48.908;9.140;2024-03-06T07:41:52;5.70;99.90
22984;DHT22;11658;48.908;9.140;2024-03-06T07:44:19;5.70;99.90
22984;DHT22;11658;48.908;9.140;2024-03-06T07:46:45;5.80;99.90
22984;DHT22;11658;48.908;9.140;2024-03-06T07:49:11;5.70;99.90
22984;DHT22;11658;48.908;9.140;2024-03-06T07:51:36;5.70;99.90
22984;DHT22;11658;48.908;9.140;2024-03-06T07:54:02;5.80;99.90
22984;DHT22;11658;48.908;9.140;2024-03-06T07:56:29;5.80;99.90
22984;DHT22;11658;48.908;9.140;2024-03-06T07:58:55;5.80;99.90
22984;DHT22;11658;48.908;9.140;2024-03-06T08:01:21;5.90;99.90
22984;DHT22;11658;48.908;9.140;2024-03-06T08:03:47;5.90;99.90
22984;DHT22;11658;48.908;9.140;2024-03-06T08:06:12;5.90;99.90
22984;DHT22;11658;48.908;9.140;2024-03-06T08:08:41;5.90;99.90
22984;DHT22;11658;48.908;9.140;2024-03-06T08:11:06;5.90;99.90
22984;DHT22;11658;48.908;9.140;2024-03-06T08:13:32;6.10;99.90
22984;DHT22;11658;48.908;9.140;2024-03-06T08:15:57;6.00;99.90
22984;DHT22;11658;48.908;9.140;2024-03-06T08:18:23;6.20;99.90
22984;DHT22;11658;48.908;9.140;2024-03-06T08:20:48;6.20;99.90
22984;DHT22;11658;48.908;9.140;2024-03-06T08:23:14;6.10;99.90
22984;DHT22;11658;48.908;9.140;2024-03-06T08:25:39;6.20;99.90
22984;DHT22;11658;48.908;9.140;2024-03-06T08:28:05;6.30;99.90
22984;DHT22;11658;48.908;9.140;2024-03-06T08:30:31;6.30;99.90
22984;DHT22;11658;48.908;9.140;2024-03-06T08:32:56;6.20;99.90
22984;DHT22;11658;48.908;9.140;2024-03-06T08:35:22;6.30;99.90
22984;DHT22;11658;48.908;9.140;2024-03-06T08:37:49;6.50;99.90
22984;DHT22;11658;48.908;9.140;2024-03-06T08:40:14;6.40;99.90
22984;DHT22;11658;48.908;9.140;2024-03-06T08:42:40;6.30;99.90
22984;DHT22;11658;48.908;9.140;2024-03-06T08:45:07;6.10;99.90
22984;DHT22;11658;48.908;9.140;2024-03-06T08:47:33;6.10;99.90
22984;DHT22;11658;48.908;9.140;2024-03-06T08:49:59;6.20;99.90
22984;DHT22;11658;48.908;9.140;2024-03-06T08:52:24;6.10;99.90
22984;DHT22;11658;48.908;9.140;2024-03-06T08:54:50;6.20;99.90
22984;DHT22;11658;48.908;9.140;2024-03-06T08:57:15;6.20;99.90
22984;DHT22;11658;48.908;9.140;2024-03-06T08:59:41;6.20;99.90
22984;DHT22;11658;48.908;9.140;2024-03-06T09:02:12;6.10;99.90
22984;DHT22;11658;48.908;9.140;2024-03-06T09:04:38;6.10;99.90
22984;DHT22;11658;48.908;9.140;2024-03-06T09:07:06;6.10;99.90
22984;DHT22;11658;48.908;9.140;2024-03-06T09:09:31;6.10;99.90
22984;DHT22;11658;48.908;9.140;2024-03-06T09:12:08;6.10;99.90
22984;DHT22;11658;48.908;9.140;2024-03-06T09:14:42;6.20;99.90
22984;DHT22;11658;48.908;9.140;2024-03-06T09:17:08;6.20;99.90
22984;DHT22;11658;48.908;9.140;2024-03-06T09:19:39;6.30;99.90
22984;DHT22;11658;48.908;9.140;2024-03-06T09:22:08;6.30;99.90
22984;DHT22;11658;48.908;9.140;2024-03-06T09:24:34;6.30;99.90
22984;DHT22;11658;48.908;9.140;2024-03-06T09:27:05;6.40;99.90
22984;DHT22;11658;48.908;9.140;2024-03-06T09:29:31;6.40;99.90
22984;DHT22;11658;48.908;9.140;2024-03-06T09:31:56;6.50;99.90
22984;DHT22;11658;48.908;9.140;2024-03-06T09:34:22;6.60;99.90
22984;DHT22;11658;48.908;9.140;2024-03-06T09:36:49;6.50;99.90
22984;DHT22;11658;48.908;9.140;2024-03-06T09:39:15;6.50;99.90
22984;DHT22;11658;48.908;9.140;2024-03-06T09:41:43;6.50;99.90
22984;DHT22;11658;48.908;9.140;2024-03-06T09:44:09;6.50;99.90
22984;DHT22;11658;48.908;9.140;2024-03-06T09:46:34;6.50;99.90
22984;DHT22;11658;48.908;9.140;2024-03-06T09:49:00;6.40;99.90
22984;DHT22;11658;48.908;9.140;2024-03-06T09:51:26;6.50;99.90
22984;DHT22;11658;48.908;9.140;2024-03-06T09:53:53;6.60;99.90
22984;DHT22;11658;48.908;9.140;2024-03-06T09:56:19;6.60;99.90
22984;DHT22;11658;48.908;9.140;2024-03-06T09:58:45;6.50;99.90
22984;DHT22;11658;48.908;9.140;2024-03-06T10:01:10;6.60;99.90
22984;DHT22;11658;48.908;9.140;2024-03-06T10:03:38;6.60;99.90
22984;DHT22;11658;48.908;9.140;2024-03-06T10:06:06;6.80;99.90
22984;DHT22;11658;48.908;9.140;2024-03-06T10:08:33;6.80;99.90
22984;DHT22;11658;48.908;9.140;2024-03-06T10:10:58;6.90;99.90
22984;DHT22;11658;48.908;9.140;2024-03-06T10:13:24;7.00;99.90
22984;DHT22;11658;48.908;9.140;2024-03-06T10:16:00;6.90;99.90
22984;DHT22;11658;48.908;9.140;2024-03-06T10:18:29;6.90;99.90
22984;DHT22;11658;48.908;9.140;2024-03-06T10:20:56;7.00;99.90
22984;DHT22;11658;48.908;9.140;2024-03-06T10:23:21;7.20;99.90
22984;DHT22;11658;48.908;9.140;2024-03-06T10:25:47;7.00;99.90
22984;DHT22;11658;48.908;9.140;2024-03-06T10:28:21;6.80;99.90
22984;DHT22;11658;48.908;9.140;2024-03-06T10:30:48;6.90;99.90
22984;DHT22;11658;48.908;9.140;2024-03-06T10:33:14;7.10;99.90
22984;DHT22;11658;48.908;9.140;2024-03-06T10:35:40;7.10;99.90
22984;DHT22;11658;48.908;9.140;2024-03-06T10:38:06;7.20;99.90
22984;DHT22;11658;48.908;9.140;2024-03-06T10:40:36;7.20;99.90
22984;DHT22;11658;48.908;9.140;2024-03-06T10:43:03;7.30;99.90
22984;DHT22;11658;48.908;9.140;2024-03-06T10:45:40;7.00;99.90
22984;DHT22;11658;48.908;9.140;2024-03-06T10:48:07;6.90;99.90
22984;DHT22;11658;48.908;9.140;2024-03-06T10:50:33;6.90;99.90
22984;DHT22;11658;48.908;9.140;2024-03-06T10:52:58;7.10;99.90
22984;DHT22;11658;48.908;9.140;2024-03-06T10:55:25;7.30;99.90
22984;DHT22;11658;48.908;9.140;2024-03-06T10:57:54;7.20;99.90
22984;DHT22;11658;48.908;9.140;2024-03-06T11:00:20;7.10;99.90
22984;DHT22;11658;48.908;9.140;2024-03-06T11:02:46;7.00;99.90
22984;DHT22;11658;48.908;9.140;2024-03-06T11:05:13;7.10;99.90
22984;DHT22;11658;48.908;9.140;2024-03-06T11:07:39;6.90;99.90
22984;DHT22;11658;48.908;9.140;2024-03-06T11:10:05;7.00;99.90
22984;DHT22;11658;48.908;9.140;2024-03-06T11:12:38;7.00;99.90
22984;DHT22;11658;48.908;9.140;2024-03-06T11:15:14;7.00;99.90
22984;DHT22;11658;48.908;9.140;2024-03-06T11:17:41;6.90;99.90
22984;DHT22;11658;48.908;9.140;2024-03-06T11:20:16;7.00;99.90
22984;DHT22;11658;48.908;9.140;2024-03-06T11:28:16;7.10;99.90
22984;DHT22;11658;48.908;9.140;2024-03-06T11:33:21;7.20;99.90
22984;DHT22;11658;48.908;9.140;2024-03-06T11:36:24;7.10;99.90
22984;DHT22;11658;48.908;9.140;2024-03-06T11:39:03;7.30;99.90
22984;DHT22;11658;48.908;9.140;2024-03-06T11:41:33;7.30;99.90
22984;DHT22;11658;48.908;9.140;2024-03-06T11:44:18;7.50;99.90
22984;DHT22;11658;48.908;9.140;2024-03-06T11:46:48;7.50;99.90
22984;DHT22;11658;48.908;9.140;2024-03-06T11:49:20;7.50;99.90
22984;DHT22;11658;48.908;9.140;2024-03-06T11:51:48;7.30;99.90
22984;DHT22;11658;48.908;9.140;2024-03-06T11:54:14;7.50;99.90
22984;DHT22;11658;48.908;9.140;2024-03-06T11:56:40;7.60;99.90
22984;DHT22;11658;48.908;9.140;2024-03-06T11:59:06;7.60;99.90
22984;DHT22;11658;48.908;9.140;2024-03-06T12:01:36;7.70;99.90
22984;DHT22;11658;48.908;9.140;2024-03-06T12:04:03;7.60;99.90
22984;DHT22;11658;48.908;9.140;2024-03-06T12:06:31;7.80;99.90
22984;DHT22;11658;48.908;9.140;2024-03-06T12:08:58;7.80;99.90
22984;DHT22;11658;48.908;9.140;2024-03-06T12:11:24;7.90;99.90
22984;DHT22;11658;48.908;9.140;2024-03-06T12:13:54;7.40;99.90
22984;DHT22;11658;48.908;9.140;2024-03-06T12:16:23;7.40;99.90
22984;DHT22;11658;48.908;9.140;2024-03-06T12:18:59;7.40;99.90
22984;DHT22;11658;48.908;9.140;2024-03-06T12:21:34;7.30;99.90
22984;DHT22;11658;48.908;9.140;2024-03-06T12:24:07;7.40;99.90
22984;DHT22;11658;48.908;9.140;2024-03-06T12:26:33;7.30;99.90
22984;DHT22;11658;48.908;9.140;2024-03-06T12:29:09;7.50;99.90
22984;DHT22;11658;48.908;9.140;2024-03-06T12:31:37;7.50;99.90
22984;DHT22;11658;48.908;9.140;2024-03-06T12:34:04;7.30;99.90
22984;DHT22;11658;48.908;9.140;2024-03-06T12:36:30;7.20;99.90
22984;DHT22;11658;48.908;9.140;2024-03-06T12:38:59;7.10;99.90
22984;DHT22;11658;48.908;9.140;2024-03-06T12:41:24;7.00;99.90
22984;DHT22;11658;48.908;9.140;2024-03-06T12:43:51;7.00;99.90
22984;DHT22;11658;48.908;9.140;2024-03-06T12:46:17;6.90;99.90
22984;DHT22;11658;48.908;9.140;2024-03-06T12:48:43;6.80;99.90
22984;DHT22;11658;48.908;9.140;2024-03-06T12:51:10;6.90;99.90
22984;DHT22;11658;48.908;9.140;2024-03-06T12:53:35;7.00;99.90
22984;DHT22;11658;48.908;9.140;2024-03-06T12:56:01;6.90;99.90
22984;DHT22;11658;48.908;9.140;2024-03-06T12:58:27;6.90;99.90
22984;DHT22;11658;48.908;9.140;2024-03-06T13:00:53;6.80;99.90
22984;DHT22;11658;48.908;9.140;2024-03-06T13:03:20;6.90;99.90
22984;DHT22;11658;48.908;9.140;2024-03-06T13:05:48;6.90;99.90
22984;DHT22;11658;48.908;9.140;2024-03-06T13:08:14;6.90;99.90
22984;DHT22;11658;48.908;9.140;2024-03-06T13:10:40;6.90;99.90
22984;DHT22;11658;48.908;9.140;2024-03-06T13:13:06;7.00;99.90
22984;DHT22;11658;48.908;9.140;2024-03-06T13:15:34;7.00;99.90
22984;DHT22;11658;48.908;9.140;2024-03-06T13:18:00;6.90;99.90
22984;DHT22;11658;48.908;9.140;2024-03-06T13:20:30;7.00;99.90
22984;DHT22;11658;48.908;9.140;2024-03-06T13:22:56;7.10;99.90
22984;DHT22;11658;48.908;9.140;2024-03-06T13:25:22;7.20;99.90
22984;DHT22;11658;48.908;9.140;2024-03-06T13:27:48;7.30;99.90
22984;DHT22;11658;48.908;9.140;2024-03-06T13:30:13;7.30;99.90
22984;DHT22;11658;48.908;9.140;2024-03-06T13:32:39;7.40;99.90
22984;DHT22;11658;48.908;9.140;2024-03-06T13:35:05;7.40;99.90
22984;DHT22;11658;48.908;9.140;2024-03-06T13:37:32;7.40;99.90
22984;DHT22;11658;48.908;9.140;2024-03-06T13:39:57;7.30;99.90
22984;DHT22;11658;48.908;9.140;2024-03-06T13:42:28;7.20;99.90
22984;DHT22;11658;48.908;9.140;2024-03-06T13:44:54;7.10;99.90
22984;DHT22;11658;48.908;9.140;2024-03-06T13:47:22;7.00;99.90
22984;DHT22;11658;48.908;9.140;2024-03-06T13:49:48;7.00;99.90
22984;DHT22;11658;48.908;9.140;2024-03-06T13:52:14;7.00;99.90
22984;DHT22;11658;48.908;9.140;2024-03-06T13:54:42;7.10;99.90
22984;DHT22;11658;48.908;9.140;2024-03-06T13:57:08;7.20;99.90
22984;DHT22;11658;48.908;9.140;2024-03-06T13:59:35;7.20;99.90
22984;DHT22;11658;48.908;9.140;2024-03-06T14:02:01;7.30;99.90
22984;DHT22;11658;48.908;9.140;2024-03-06T14:04:28;7.30;99.90
22984;DHT22;11658;48.908;9.140;2024-03-06T14:06:55;7.20;99.90
22984;DHT22;11658;48.908;9.140;2024-03-06T14:09:22;7.20;99.90
22984;DHT22;11658;48.908;9.140;2024-03-06T14:11:49;7.20;99.90
22984;DHT22;11658;48.908;9.140;2024-03-06T14:14:16;7.10;99.90
22984;DHT22;11658;48.908;9.140;2024-03-06T14:16:41;7.10;99.90
22984;DHT22;11658;48.908;9.140;2024-03-06T14:19:08;7.20;99.90
22984;DHT22;11658;48.908;9.140;2024-03-06T14:21:33;7.30;99.90
22984;DHT22;11658;48.908;9.140;2024-03-06T14:24:00;7.30;99.90
22984;DHT22;11658;48.908;9.140;2024-03-06T14:26:29;7.50;99.90
22984;DHT22;11658;48.908;9.140;2024-03-06T14:28:55;7.50;99.90
22984;DHT22;11658;48.908;9.140;2024-03-06T14:31:20;7.60;99.90
22984;DHT22;11658;48.908;9.140;2024-03-06T14:33:46;7.60;99.90
22984;DHT22;11658;48.908;9.140;2024-03-06T14:36:12;7.70;99.90
22984;DHT22;11658;48.908;9.140;2024-03-06T14:38:38;7.70;99.90
22984;DHT22;11658;48.908;9.140;2024-03-06T14:41:04;7.60;99.90
22984;DHT22;11658;48.908;9.140;2024-03-06T14:43:31;7.50;99.90
22984;DHT22;11658;48.908;9.140;2024-03-06T14:46:02;7.60;99.90
22984;DHT22;11658;48.908;9.140;2024-03-06T14:48:29;7.60;99.90
22984;DHT22;11658;48.908;9.140;2024-03-06T14:50:55;7.70;99.90
22984;DHT22;11658;48.908;9.140;2024-03-06T14:53:20;7.70;99.90
22984;DHT22;11658;48.908;9.140;2024-03-06T14:55:46;7.80;99.90
22984;DHT22;11658;48.908;9.140;2024-03-06T14:58:12;7.70;99.90
22984;DHT22;11658;48.908;9.140;2024-03-06T15:00:37;7.80;99.90
22984;DHT22;11658;48.908;9.140;2024-03-06T15:03:03;7.60;99.90
22984;DHT22;11658;48.908;9.140;2024-03-06T15:05:29;7.60;99.90
22984;DHT22;11658;48.908;9.140;2024-03-06T15:07:57;7.70;99.90
22984;DHT22;11658;48.908;9.140;2024-03-06T15:10:23;7.70;99.90
22984;DHT22;11658;48.908;9.140;2024-03-06T15:12:49;7.70;99.90
22984;DHT22;11658;48.908;9.140;2024-03-06T15:15:15;7.60;99.90
22984;DHT22;11658;48.908;9.140;2024-03-06T15:17:40;7.70;99.90
22984;DHT22;11658;48.908;9.140;2024-03-06T15:20:07;7.50;99.90
22984;DHT22;11658;48.908;9.140;2024-03-06T15:22:36;7.60;99.90
22984;DHT22;11658;48.908;9.140;2024-03-06T15:25:08;7.50;99.90
22984;DHT22;11658;48.908;9.140;2024-03-06T15:27:34;7.20;99.90
22984;DHT22;11658;48.908;9.140;2024-03-06T15:30:01;7.20;99.90
22984;DHT22;11658;48.908;9.140;2024-03-06T15:32:27;7.20;99.90
22984;DHT22;11658;48.908;9.140;2024-03-06T15:34:55;7.10;99.90
22984;DHT22;11658;48.908;9.140;2024-03-06T15:37:23;7.20;99.90
22984;DHT22;11658;48.908;9.140;2024-03-06T15:39:55;7.00;99.90
22984;DHT22;11658;48.908;9.140;2024-03-06T15:42:21;7.10;99.90
22984;DHT22;11658;48.908;9.140;2024-03-06T15:44:48;7.20;99.90
22984;DHT22;11658;48.908;9.140;2024-03-06T15:47:14;7.20;99.90
22984;DHT22;11658;48.908;9.140;2024-03-06T15:49:40;7.30;99.90
22984;DHT22;11658;48.908;9.140;2024-03-06T15:52:06;7.30;99.90
22984;DHT22;11658;48.908;9.140;2024-03-06T15:54:32;7.20;99.90
22984;DHT22;11658;48.908;9.140;2024-03-06T15:56:58;7.10;99.90
22984;DHT22;11658;48.908;9.140;2024-03-06T15:59:24;7.10;99.90
22984;DHT22;11658;48.908;9.140;2024-03-06T16:01:49;7.20;99.90
22984;DHT22;11658;48.908;9.140;2024-03-06T16:04:15;7.30;99.90
22984;DHT22;11658;48.908;9.140;2024-03-06T16:06:41;7.20;99.90
22984;DHT22;11658;48.908;9.140;2024-03-06T16:09:09;7.20;99.90
22984;DHT22;11658;48.908;9.140;2024-03-06T16:11:39;7.20;99.90
22984;DHT22;11658;48.908;9.140;2024-03-06T16:14:05;7.10;99.90
22984;DHT22;11658;48.908;9.140;2024-03-06T16:16:30;7.10;99.90
22984;DHT22;11658;48.908;9.140;2024-03-06T16:18:56;7.10;99.90
22984;DHT22;11658;48.908;9.140;2024-03-06T16:21:22;7.20;99.90
22984;DHT22;11658;48.908;9.140;2024-03-06T16:23:48;7.20;99.90
22984;DHT22;11658;48.908;9.140;2024-03-06T16:26:14;7.20;99.90
22984;DHT22;11658;48.908;9.140;2024-03-06T16:28:41;7.30;99.90
22984;DHT22;11658;48.908;9.140;2024-03-06T16:31:06;7.30;99.90
22984;DHT22;11658;48.908;9.140;2024-03-06T16:33:32;7.30;99.90
22984;DHT22;11658;48.908;9.140;2024-03-06T16:35:58;7.30;99.90
22984;DHT22;11658;48.908;9.140;2024-03-06T16:38:23;7.30;99.90
22984;DHT22;11658;48.908;9.140;2024-03-06T16:40:49;7.40;99.90
22984;DHT22;11658;48.908;9.140;2024-03-06T16:43:15;7.30;99.90
22984;DHT22;11658;48.908;9.140;2024-03-06T16:45:41;7.20;99.90
22984;DHT22;11658;48.908;9.140;2024-03-06T16:48:06;7.30;99.90
22984;DHT22;11658;48.908;9.140;2024-03-06T16:50:32;7.20;99.90
22984;DHT22;11658;48.908;9.140;2024-03-06T16:52:58;7.30;99.90
22984;DHT22;11658;48.908;9.140;2024-03-06T16:55:24;7.30;99.90
22984;DHT22;11658;48.908;9.140;2024-03-06T16:57:50;7.30;99.90
22984;DHT22;11658;48.908;9.140;2024-03-06T17:00:16;7.30;99.90
22984;DHT22;11658;48.908;9.140;2024-03-06T17:02:42;7.20;99.90
22984;DHT22;11658;48.908;9.140;2024-03-06T17:05:08;7.30;99.90
22984;DHT22;11658;48.908;9.140;2024-03-06T17:07:36;7.30;99.90
22984;DHT22;11658;48.908;9.140;2024-03-06T17:10:02;7.30;99.90
22984;DHT22;11658;48.908;9.140;2024-03-06T17:12:27;7.20;99.90
22984;DHT22;11658;48.908;9.140;2024-03-06T17:14:53;7.20;99.90
22984;DHT22;11658;48.908;9.140;2024-03-06T17:17:19;7.20;99.90
22984;DHT22;11658;48.908;9.140;2024-03-06T17:19:45;7.00;99.90
22984;DHT22;11658;48.908;9.140;2024-03-06T17:22:11;7.00;99.90
22984;DHT22;11658;48.908;9.140;2024-03-06T17:24:38;7.00;99.90
22984;DHT22;11658;48.908;9.140;2024-03-06T17:27:05;7.10;99.90
22984;DHT22;11658;48.908;9.140;2024-03-06T17:29:30;7.10;99.90
22984;DHT22;11658;48.908;9.140;2024-03-06T17:31:56;7.20;99.90
22984;DHT22;11658;48.908;9.140;2024-03-06T17:34:22;7.20;99.90
22984;DHT22;11658;48.908;9.140;2024-03-06T17:36:47;7.20;99.90
22984;DHT22;11658;48.908;9.140;2024-03-06T17:39:13;7.10;99.90
22984;DHT22;11658;48.908;9.140;2024-03-06T17:41:41;7.10;99.90
22984;DHT22;11658;48.908;9.140;2024-03-06T17:44:10;7.00;99.90
22984;DHT22;11658;48.908;9.140;2024-03-06T17:46:36;7.00;99.90
22984;DHT22;11658;48.908;9.140;2024-03-06T17:49:02;7.00;99.90
22984;DHT22;11658;48.908;9.140;2024-03-06T17:51:29;7.00;99.90
22984;DHT22;11658;48.908;9.140;2024-03-06T17:53:54;7.00;99.90
22984;DHT22;11658;48.908;9.140;2024-03-06T17:56:20;7.00;99.90
22984;DHT22;11658;48.908;9.140;2024-03-06T17:58:45;6.90;99.90
22984;DHT22;11658;48.908;9.140;2024-03-06T18:01:11;6.90;99.90
22984;DHT22;11658;48.908;9.140;2024-03-06T18:03:36;6.90;99.90
22984;DHT22;11658;48.908;9.140;2024-03-06T18:06:03;6.90;99.90
22984;DHT22;11658;48.908;9.140;2024-03-06T18:08:28;7.00;99.90
22984;DHT22;11658;48.908;9.140;2024-03-06T18:10:54;6.90;99.90
22984;DHT22;11658;48.908;9.140;2024-03-06T18:13:20;7.00;99.90
22984;DHT22;11658;48.908;9.140;2024-03-06T18:15:45;6.90;99.90
22984;DHT22;11658;48.908;9.140;2024-03-06T18:18:11;6.90;99.90
22984;DHT22;11658;48.908;9.140;2024-03-06T18:20:37;6.80;99.90
22984;DHT22;11658;48.908;9.140;2024-03-06T18:23:03;6.90;99.90
22984;DHT22;11658;48.908;9.140;2024-03-06T18:25:28;7.00;99.90
22984;DHT22;11658;48.908;9.140;2024-03-06T18:27:54;6.90;99.90
22984;DHT22;11658;48.908;9.140;2024-03-06T18:30:20;7.00;99.90
22984;DHT22;11658;48.908;9.140;2024-03-06T18:32:46;7.00;99.90
22984;DHT22;11658;48.908;9.140;2024-03-06T18:35:11;6.90;99.90
22984;DHT22;11658;48.908;9.140;2024-03-06T18:37:37;6.90;99.90
22984;DHT22;11658;48.908;9.140;2024-03-06T18:40:03;6.90;99.90
22984;DHT22;11658;48.908;9.140;2024-03-06T18:42:29;7.00;99.90
22984;DHT22;11658;48.908;9.140;2024-03-06T18:44:55;6.80;99.90
22984;DHT22;11658;48.908;9.140;2024-03-06T18:47:20;6.80;99.90
22984;DHT22;11658;48.908;9.140;2024-03-06T18:49:47;6.90;99.90
22984;DHT22;11658;48.908;9.140;2024-03-06T18:52:12;6.90;99.90
22984;DHT22;11658;48.908;9.140;2024-03-06T18:54:38;6.90;99.90
22984;DHT22;11658;48.908;9.140;2024-03-06T18:57:05;6.80;99.90
22984;DHT22;11658;48.908;9.140;2024-03-06T18:59:31;6.80;99.90
22984;DHT22;11658;48.908;9.140;2024-03-06T19:01:58;6.80;99.90
22984;DHT22;11658;48.908;9.140;2024-03-06T19:04:23;6.80;99.90
22984;DHT22;11658;48.908;9.140;2024-03-06T19:06:50;6.70;99.90
22984;DHT22;11658;48.908;9.140;2024-03-06T19:09:16;6.70;99.90
22984;DHT22;11658;48.908;9.140;2024-03-06T19:11:44;6.70;99.90
22984;DHT22;11658;48.908;9.140;2024-03-06T19:14:10;6.70;99.90
22984;DHT22;11658;48.908;9.140;2024-03-06T19:16:35;6.70;99.90
22984;DHT22;11658;48.908;9.140;2024-03-06T19:19:01;6.80;99.90
22984;DHT22;11658;48.908;9.140;2024-03-06T19:21:27;6.80;99.90
22984;DHT22;11658;48.908;9.140;2024-03-06T19:23:52;6.80;99.90
22984;DHT22;11658;48.908;9.140;2024-03-06T19:26:18;6.80;99.90
22984;DHT22;11658;48.908;9.140;2024-03-06T19:28:44;6.90;99.90
22984;DHT22;11658;48.908;9.140;2024-03-06T19:31:09;6.90;99.90
22984;DHT22;11658;48.908;9.140;2024-03-06T19:33:35;6.90;99.90
22984;DHT22;11658;48.908;9.140;2024-03-06T19:36:00;6.90;99.90
22984;DHT22;11658;48.908;9.140;2024-03-06T19:38:26;6.80;99.90
22984;DHT22;11658;48.908;9.140;2024-03-06T19:40:52;6.90;99.90
22984;DHT22;11658;48.908;9.140;2024-03-06T19:43:19;6.80;99.90
22984;DHT22;11658;48.908;9.140;2024-03-06T19:45:45;6.80;99.90
22984;DHT22;11658;48.908;9.140;2024-03-06T19:48:10;6.80;99.90
22984;DHT22;11658;48.908;9.140;2024-03-06T19:50:36;6.80;99.90
22984;DHT22;11658;48.908;9.140;2024-03-06T19:53:03;6.80;99.90
22984;DHT22;11658;48.908;9.140;2024-03-06T19:55:28;6.70;99.90
22984;DHT22;11658;48.908;9.140;2024-03-06T19:57:57;6.80;99.90
22984;DHT22;11658;48.908;9.140;2024-03-06T20:00:22;6.70;99.90
22984;DHT22;11658;48.908;9.140;2024-03-06T20:02:48;6.70;99.90
22984;DHT22;11658;48.908;9.140;2024-03-06T20:05:15;6.70;99.90
22984;DHT22;11658;48.908;9.140;2024-03-06T20:07:40;6.80;99.90
22984;DHT22;11658;48.908;9.140;2024-03-06T20:10:06;6.80;99.90
22984;DHT22;11658;48.908;9.140;2024-03-06T20:12:32;6.80;99.90
22984;DHT22;11658;48.908;9.140;2024-03-06T20:14:57;6.70;99.90
22984;DHT22;11658;48.908;9.140;2024-03-06T20:17:23;6.80;99.90
22984;DHT22;11658;48.908;9.140;2024-03-06T20:19:48;6.70;99.90
22984;DHT22;11658;48.908;9.140;2024-03-06T20:22:18;6.60;99.90
22984;DHT22;11658;48.908;9.140;2024-03-06T20:24:44;6.70;99.90
22984;DHT22;11658;48.908;9.140;2024-03-06T20:27:12;6.50;99.90
22984;DHT22;11658;48.908;9.140;2024-03-06T20:29:38;6.50;99.90
22984;DHT22;11658;48.908;9.140;2024-03-06T20:32:07;6.50;99.90
22984;DHT22;11658;48.908;9.140;2024-03-06T20:34:33;6.50;99.90
22984;DHT22;11658;48.908;9.140;2024-03-06T20:36:58;6.50;99.90
22984;DHT22;11658;48.908;9.140;2024-03-06T20:39:24;6.50;99.90
22984;DHT22;11658;48.908;9.140;2024-03-06T20:41:49;6.50;99.90
22984;DHT22;11658;48.908;9.140;2024-03-06T20:44:19;6.50;99.90
22984;DHT22;11658;48.908;9.140;2024-03-06T20:46:44;6.50;99.90
22984;DHT22;11658;48.908;9.140;2024-03-06T20:49:10;6.50;99.90